sensor_id;sensor_type;location;lat;lon;timestamp;pressure;altitude;pressure_sealevel;temperature;humidity
40918;BME280;26644;50.248;19.032;2024-01-06T00:01:35;97082.94;;;0.93;81.04
40918;BME280;26644;50.248;19.032;2024-01-06T00:04:40;97090.06;;;0.99;81.69
40918;BME280;26644;50.248;19.032;2024-01-06T00:07:47;97082.56;;;1.06;82.03
40918;BME280;26644;50.248;19.032;2024-01-06T00:10:52;97076.09;;;1.07;81.25
40918;BME280;26644;50.248;19.032;2024-01-06T00:13:58;97078.47;;;1.04;80.54
40918;BME280;26644;50.248;19.032;2024-01-06T00:17:03;97070.88;;;1.01;80.60
40918;BME280;26644;50.248;19.032;2024-01-06T00:20:08;97070.31;;;0.99;80.74
40918;BME280;26644;50.248;19.032;2024-01-06T00:23:16;97073.59;;;1.01;80.65
40918;BME280;26644;50.248;19.032;2024-01-06T00:26:20;97063.84;;;1.00;80.42
40918;BME280;26644;50.248;19.032;2024-01-06T00:29:26;97072.53;;;1.02;80.75
40918;BME280;26644;50.248;19.032;2024-01-06T00:32:30;97068.19;;;1.01;80.37
40918;BME280;26644;50.248;19.032;2024-01-06T00:35:35;97056.19;;;1.14;81.58
40918;BME280;26644;50.248;19.032;2024-01-06T00:38:42;97062.00;;;1.27;81.59
40918;BME280;26644;50.248;19.032;2024-01-06T00:41:46;97060.81;;;1.40;80.51
40918;BME280;26644;50.248;19.032;2024-01-06T00:44:51;97056.84;;;1.48;79.28
40918;BME280;26644;50.248;19.032;2024-01-06T00:47:56;97067.47;;;1.55;79.34
40918;BME280;26644;50.248;19.032;2024-01-06T00:51:00;97077.28;;;1.66;79.28
40918;BME280;26644;50.248;19.032;2024-01-06T00:54:08;97078.47;;;1.75;78.36
40918;BME280;26644;50.248;19.032;2024-01-06T00:57:12;97087.41;;;1.76;78.06
40918;BME280;26644;50.248;19.032;2024-01-06T01:00:17;97075.28;;;1.79;78.23
40918;BME280;26644;50.248;19.032;2024-01-06T01:03:21;97080.97;;;1.82;78.06
40918;BME280;26644;50.248;19.032;2024-01-06T01:06:26;97083.13;;;1.80;77.34
40918;BME280;26644;50.248;19.032;2024-01-06T01:09:33;97083.66;;;1.77;77.46
40918;BME280;26644;50.248;19.032;2024-01-06T01:12:39;97082.56;;;1.78;77.64
40918;BME280;26644;50.248;19.032;2024-01-06T01:15:43;97093.63;;;1.76;77.08
40918;BME280;26644;50.248;19.032;2024-01-06T01:18:48;97093.63;;;1.76;78.11
40918;BME280;26644;50.248;19.032;2024-01-06T01:21:52;97100.44;;;1.79;77.56
40918;BME280;26644;50.248;19.032;2024-01-06T01:25:00;97092.63;;;1.83;77.86
40918;BME280;26644;50.248;19.032;2024-01-06T01:28:08;97096.13;;;1.83;77.90
40918;BME280;26644;50.248;19.032;2024-01-06T01:31:13;97098.59;;;1.85;77.68
40918;BME280;26644;50.248;19.032;2024-01-06T01:34:17;97095.88;;;1.85;77.47
40918;BME280;26644;50.248;19.032;2024-01-06T01:37:22;97094.28;;;1.89;77.75
40918;BME280;26644;50.248;19.032;2024-01-06T01:40:29;97093.50;;;1.88;77.35
40918;BME280;26644;50.248;19.032;2024-01-06T01:43:34;97090.84;;;1.93;77.53
40918;BME280;26644;50.248;19.032;2024-01-06T01:46:39;97081.38;;;1.96;77.49
40918;BME280;26644;50.248;19.032;2024-01-06T01:49:46;97086.84;;;2.01;77.65
40918;BME280;26644;50.248;19.032;2024-01-06T01:52:50;97083.09;;;2.07;76.68
40918;BME280;26644;50.248;19.032;2024-01-06T01:55:59;97088.56;;;2.13;76.99
40918;BME280;26644;50.248;19.032;2024-01-06T01:59:07;97082.13;;;2.19;76.86
40918;BME280;26644;50.248;19.032;2024-01-06T02:02:15;97083.75;;;2.20;76.70
40918;BME280;26644;50.248;19.032;2024-01-06T02:05:20;97085.63;;;2.19;76.20
40918;BME280;26644;50.248;19.032;2024-01-06T02:08:25;97084.56;;;2.20;76.32
40918;BME280;26644;50.248;19.032;2024-01-06T02:11:33;97089.44;;;2.18;75.88
40918;BME280;26644;50.248;19.032;2024-01-06T02:14:37;97085.34;;;2.16;76.27
40918;BME280;26644;50.248;19.032;2024-01-06T02:17:43;97088.88;;;2.16;76.08
40918;BME280;26644;50.248;19.032;2024-01-06T02:20:50;97088.59;;;2.18;76.26
40918;BME280;26644;50.248;19.032;2024-01-06T02:24:00;97094.00;;;2.18;76.49
40918;BME280;26644;50.248;19.032;2024-01-06T02:27:04;97088.91;;;2.21;76.84
40918;BME280;26644;50.248;19.032;2024-01-06T02:30:10;97087.00;;;2.22;75.91
40918;BME280;26644;50.248;19.032;2024-01-06T02:33:14;97080.97;;;2.09;75.61
40918;BME280;26644;50.248;19.032;2024-01-06T02:36:21;97076.78;;;1.97;76.40
40918;BME280;26644;50.248;19.032;2024-01-06T02:39:27;97069.13;;;1.88;76.75
40918;BME280;26644;50.248;19.032;2024-01-06T02:42:32;97052.50;;;1.74;77.13
40918;BME280;26644;50.248;19.032;2024-01-06T02:45:36;97045.50;;;1.79;77.80
40918;BME280;26644;50.248;19.032;2024-01-06T02:48:41;97050.69;;;1.85;77.84
40918;BME280;26644;50.248;19.032;2024-01-06T02:51:46;97051.19;;;1.82;77.50
40918;BME280;26644;50.248;19.032;2024-01-06T02:54:53;97053.19;;;1.92;77.69
40918;BME280;26644;50.248;19.032;2024-01-06T02:57:57;97055.13;;;1.97;77.22
40918;BME280;26644;50.248;19.032;2024-01-06T03:01:02;97055.75;;;2.04;77.42
40918;BME280;26644;50.248;19.032;2024-01-06T03:04:07;97058.72;;;2.07;77.47
40918;BME280;26644;50.248;19.032;2024-01-06T03:07:12;97050.59;;;2.07;77.21
40918;BME280;26644;50.248;19.032;2024-01-06T03:10:19;97053.06;;;2.09;76.93
40918;BME280;26644;50.248;19.032;2024-01-06T03:13:24;97051.47;;;2.13;76.83
40918;BME280;26644;50.248;19.032;2024-01-06T03:16:28;97046.34;;;2.17;77.03
40918;BME280;26644;50.248;19.032;2024-01-06T03:19:33;97036.88;;;2.19;76.98
40918;BME280;26644;50.248;19.032;2024-01-06T03:22:37;97045.88;;;2.25;76.93
40918;BME280;26644;50.248;19.032;2024-01-06T03:25:45;97048.63;;;2.30;77.00
40918;BME280;26644;50.248;19.032;2024-01-06T03:28:49;97047.84;;;2.35;76.88
40918;BME280;26644;50.248;19.032;2024-01-06T03:31:54;97047.09;;;2.44;76.80
40918;BME280;26644;50.248;19.032;2024-01-06T03:34:59;97050.38;;;2.47;76.13
40918;BME280;26644;50.248;19.032;2024-01-06T03:38:04;97051.13;;;2.37;75.60
40918;BME280;26644;50.248;19.032;2024-01-06T03:41:11;97051.56;;;2.28;76.54
40918;BME280;26644;50.248;19.032;2024-01-06T03:44:15;97045.66;;;2.32;76.61
40918;BME280;26644;50.248;19.032;2024-01-06T03:47:20;97048.38;;;2.32;76.38
40918;BME280;26644;50.248;19.032;2024-01-06T03:50:25;97034.78;;;2.26;75.98
40918;BME280;26644;50.248;19.032;2024-01-06T03:53:29;97039.63;;;2.24;76.86
40918;BME280;26644;50.248;19.032;2024-01-06T03:56:36;97039.97;;;2.33;77.00
40918;BME280;26644;50.248;19.032;2024-01-06T03:59:43;97044.09;;;2.41;76.75
40918;BME280;26644;50.248;19.032;2024-01-06T04:02:48;97048.19;;;2.43;75.84
40918;BME280;26644;50.248;19.032;2024-01-06T04:05:53;97056.84;;;2.46;76.92
40918;BME280;26644;50.248;19.032;2024-01-06T04:08:58;97057.19;;;2.54;76.58
40918;BME280;26644;50.248;19.032;2024-01-06T04:12:05;97071.03;;;2.63;76.39
40918;BME280;26644;50.248;19.032;2024-01-06T04:15:11;97065.97;;;2.72;75.64
40918;BME280;26644;50.248;19.032;2024-01-06T04:18:15;97050.28;;;2.74;75.86
40918;BME280;26644;50.248;19.032;2024-01-06T04:21:20;97063.31;;;2.82;76.07
40918;BME280;26644;50.248;19.032;2024-01-06T04:24:24;97069.56;;;2.88;75.26
40918;BME280;26644;50.248;19.032;2024-01-06T04:27:32;97065.00;;;2.93;75.39
40918;BME280;26644;50.248;19.032;2024-01-06T04:30:37;97069.38;;;3.00;75.01
40918;BME280;26644;50.248;19.032;2024-01-06T04:33:42;97070.47;;;3.04;75.19
40918;BME280;26644;50.248;19.032;2024-01-06T04:36:46;97067.78;;;3.09;74.83
40918;BME280;26644;50.248;19.032;2024-01-06T04:39:51;97068.09;;;3.13;74.79
40918;BME280;26644;50.248;19.032;2024-01-06T04:42:58;97067.28;;;3.17;74.64
40918;BME280;26644;50.248;19.032;2024-01-06T04:46:03;97074.03;;;3.15;73.81
40918;BME280;26644;50.248;19.032;2024-01-06T04:49:07;97068.88;;;3.13;74.00
40918;BME280;26644;50.248;19.032;2024-01-06T04:52:12;97066.97;;;3.08;73.84
40918;BME280;26644;50.248;19.032;2024-01-06T04:55:16;97069.41;;;3.10;74.68
40918;BME280;26644;50.248;19.032;2024-01-06T04:58:24;97070.78;;;3.13;74.54
40918;BME280;26644;50.248;19.032;2024-01-06T05:01:28;97066.16;;;3.13;74.23
40918;BME280;26644;50.248;19.032;2024-01-06T05:04:33;97061.81;;;3.12;74.29
40918;BME280;26644;50.248;19.032;2024-01-06T05:07:37;97065.63;;;3.11;74.06
40918;BME280;26644;50.248;19.032;2024-01-06T05:10:42;97066.97;;;3.08;74.33
40918;BME280;26644;50.248;19.032;2024-01-06T05:13:50;97072.94;;;3.10;75.03
40918;BME280;26644;50.248;19.032;2024-01-06T05:16:55;97072.66;;;3.02;74.08
40918;BME280;26644;50.248;19.032;2024-01-06T05:20:00;97064.75;;;2.95;74.36
40918;BME280;26644;50.248;19.032;2024-01-06T05:23:05;97075.56;;;2.90;74.73
40918;BME280;26644;50.248;19.032;2024-01-06T05:26:09;97078.28;;;2.90;75.62
40918;BME280;26644;50.248;19.032;2024-01-06T05:29:18;97086.16;;;2.97;75.08
40918;BME280;26644;50.248;19.032;2024-01-06T05:32:22;97079.69;;;3.03;75.08
40918;BME280;26644;50.248;19.032;2024-01-06T05:35:27;97081.34;;;3.09;74.71
40918;BME280;26644;50.248;19.032;2024-01-06T05:38:31;97084.34;;;3.13;74.83
40918;BME280;26644;50.248;19.032;2024-01-06T05:41:39;97080.53;;;3.08;73.97
40918;BME280;26644;50.248;19.032;2024-01-06T05:44:47;97088.91;;;3.02;74.88
40918;BME280;26644;50.248;19.032;2024-01-06T05:47:52;97079.44;;;3.04;75.52
40918;BME280;26644;50.248;19.032;2024-01-06T05:50:57;97075.66;;;3.10;74.83
40918;BME280;26644;50.248;19.032;2024-01-06T05:54:02;97084.63;;;3.16;74.47
40918;BME280;26644;50.248;19.032;2024-01-06T05:57:06;97078.41;;;3.21;75.02
40918;BME280;26644;50.248;19.032;2024-01-06T06:00:15;97083.31;;;3.29;74.29
40918;BME280;26644;50.248;19.032;2024-01-06T06:03:20;97073.84;;;3.32;74.81
40918;BME280;26644;50.248;19.032;2024-01-06T06:06:26;97082.81;;;3.42;74.37
40918;BME280;26644;50.248;19.032;2024-01-06T06:09:30;97088.28;;;3.48;74.57
40918;BME280;26644;50.248;19.032;2024-01-06T06:12:36;97087.75;;;3.51;74.00
40918;BME280;26644;50.248;19.032;2024-01-06T06:15:44;97097.00;;;3.55;73.82
40918;BME280;26644;50.248;19.032;2024-01-06T06:18:49;97096.44;;;3.53;74.00
40918;BME280;26644;50.248;19.032;2024-01-06T06:21:53;97102.97;;;3.57;73.83
40918;BME280;26644;50.248;19.032;2024-01-06T06:24:59;97104.03;;;3.56;73.69
40918;BME280;26644;50.248;19.032;2024-01-06T06:28:05;97099.16;;;3.53;73.81
40918;BME280;26644;50.248;19.032;2024-01-06T06:31:12;97106.75;;;3.56;74.16
40918;BME280;26644;50.248;19.032;2024-01-06T06:34:17;97115.72;;;3.56;74.16
40918;BME280;26644;50.248;19.032;2024-01-06T06:37:22;97107.31;;;3.58;74.15
40918;BME280;26644;50.248;19.032;2024-01-06T06:40:26;97113.53;;;3.58;74.12
40918;BME280;26644;50.248;19.032;2024-01-06T06:43:31;97112.19;;;3.61;74.46
40918;BME280;26644;50.248;19.032;2024-01-06T06:46:38;97103.53;;;3.59;74.23
40918;BME280;26644;50.248;19.032;2024-01-06T06:49:43;97107.59;;;3.56;74.07
40918;BME280;26644;50.248;19.032;2024-01-06T06:52:48;97106.47;;;3.52;74.40
40918;BME280;26644;50.248;19.032;2024-01-06T06:55:53;97113.78;;;3.52;74.88
40918;BME280;26644;50.248;19.032;2024-01-06T06:58:57;97114.38;;;3.59;74.91
40918;BME280;26644;50.248;19.032;2024-01-06T07:02:06;97117.91;;;3.65;74.60
40918;BME280;26644;50.248;19.032;2024-01-06T07:05:10;97117.63;;;3.61;74.45
40918;BME280;26644;50.248;19.032;2024-01-06T07:08:15;97120.31;;;3.56;74.19
40918;BME280;26644;50.248;19.032;2024-01-06T07:11:19;97126.56;;;3.56;75.35
40918;BME280;26644;50.248;19.032;2024-01-06T07:14:24;97125.25;;;3.64;75.41
40918;BME280;26644;50.248;19.032;2024-01-06T07:17:31;97129.09;;;3.73;75.10
40918;BME280;26644;50.248;19.032;2024-01-06T07:20:36;97129.09;;;3.78;74.46
40918;BME280;26644;50.248;19.032;2024-01-06T07:23:40;97136.16;;;3.85;74.50
40918;BME280;26644;50.248;19.032;2024-01-06T07:26:45;97136.72;;;3.92;74.37
40918;BME280;26644;50.248;19.032;2024-01-06T07:29:49;97131.03;;;3.99;74.29
40918;BME280;26644;50.248;19.032;2024-01-06T07:32:57;97135.66;;;4.03;74.25
40918;BME280;26644;50.248;19.032;2024-01-06T07:36:02;97139.75;;;4.06;73.89
40918;BME280;26644;50.248;19.032;2024-01-06T07:39:07;97138.94;;;4.10;74.14
40918;BME280;26644;50.248;19.032;2024-01-06T07:42:11;97145.19;;;4.16;73.94
40918;BME280;26644;50.248;19.032;2024-01-06T07:45:16;97145.72;;;4.18;74.33
40918;BME280;26644;50.248;19.032;2024-01-06T07:48:23;97145.22;;;4.26;74.16
40918;BME280;26644;50.248;19.032;2024-01-06T07:51:28;97146.03;;;4.32;74.13
40918;BME280;26644;50.248;19.032;2024-01-06T07:54:32;97148.75;;;4.37;73.70
40918;BME280;26644;50.248;19.032;2024-01-06T07:57:37;97148.75;;;4.42;73.68
40918;BME280;26644;50.248;19.032;2024-01-06T08:00:41;97150.66;;;4.47;73.28
40918;BME280;26644;50.248;19.032;2024-01-06T08:03:49;97145.50;;;4.45;73.35
40918;BME280;26644;50.248;19.032;2024-01-06T08:06:54;97157.72;;;4.53;72.74
40918;BME280;26644;50.248;19.032;2024-01-06T08:09:59;97158.53;;;4.54;72.82
40918;BME280;26644;50.248;19.032;2024-01-06T08:13:05;97176.19;;;4.56;73.07
40918;BME280;26644;50.248;19.032;2024-01-06T08:16:10;97171.34;;;4.58;72.69
40918;BME280;26644;50.248;19.032;2024-01-06T08:19:17;97177.84;;;4.57;72.50
40918;BME280;26644;50.248;19.032;2024-01-06T08:22:22;97185.19;;;4.57;72.72
40918;BME280;26644;50.248;19.032;2024-01-06T08:25:27;97177.28;;;4.55;72.77
40918;BME280;26644;50.248;19.032;2024-01-06T08:28:32;97186.28;;;4.56;72.62
40918;BME280;26644;50.248;19.032;2024-01-06T08:31:36;97176.50;;;4.60;72.91
40918;BME280;26644;50.248;19.032;2024-01-06T08:34:43;97182.47;;;4.67;72.96
40918;BME280;26644;50.248;19.032;2024-01-06T08:37:48;97187.41;;;4.75;72.66
40918;BME280;26644;50.248;19.032;2024-01-06T08:40:53;97147.97;;;4.63;72.96
40918;BME280;26644;50.248;19.032;2024-01-06T08:43:57;97185.22;;;4.93;72.95
40918;BME280;26644;50.248;19.032;2024-01-06T08:47:03;97185.22;;;5.03;72.77
40918;BME280;26644;50.248;19.032;2024-01-06T08:50:10;97192.81;;;5.17;72.85
40918;BME280;26644;50.248;19.032;2024-01-06T08:53:15;97194.13;;;5.24;72.37
40918;BME280;26644;50.248;19.032;2024-01-06T08:56:20;97197.13;;;5.28;71.78
40918;BME280;26644;50.248;19.032;2024-01-06T08:59:25;97199.31;;;5.31;72.49
40918;BME280;26644;50.248;19.032;2024-01-06T09:02:30;97202.00;;;5.36;72.54
40918;BME280;26644;50.248;19.032;2024-01-06T09:05:38;97200.09;;;5.37;72.22
40918;BME280;26644;50.248;19.032;2024-01-06T09:08:42;97199.03;;;5.38;72.75
40918;BME280;26644;50.248;19.032;2024-01-06T09:11:47;97198.47;;;5.36;71.94
40918;BME280;26644;50.248;19.032;2024-01-06T09:14:52;97202.00;;;5.36;72.47
40918;BME280;26644;50.248;19.032;2024-01-06T09:17:57;97196.31;;;5.38;72.20
40918;BME280;26644;50.248;19.032;2024-01-06T09:21:04;97207.44;;;5.41;72.23
40918;BME280;26644;50.248;19.032;2024-01-06T09:24:09;97197.66;;;5.40;72.09
40918;BME280;26644;50.248;19.032;2024-01-06T09:27:14;97195.47;;;5.37;72.29
40918;BME280;26644;50.248;19.032;2024-01-06T09:30:19;97208.56;;;5.35;72.19
40918;BME280;26644;50.248;19.032;2024-01-06T09:33:23;97214.00;;;5.35;72.22
40918;BME280;26644;50.248;19.032;2024-01-06T09:36:31;97216.72;;;5.35;72.32
40918;BME280;26644;50.248;19.032;2024-01-06T09:39:36;97215.34;;;5.38;72.24
40918;BME280;26644;50.248;19.032;2024-01-06T09:42:41;97209.34;;;5.36;72.52
40918;BME280;26644;50.248;19.032;2024-01-06T09:45:54;97202.84;;;5.37;72.83
40918;BME280;26644;50.248;19.032;2024-01-06T09:49:03;97206.34;;;5.37;73.21
40918;BME280;26644;50.248;19.032;2024-01-06T09:52:14;97210.72;;;5.38;73.13
40918;BME280;26644;50.248;19.032;2024-01-06T09:55:23;97209.06;;;5.42;73.56
40918;BME280;26644;50.248;19.032;2024-01-06T09:58:30;97218.59;;;5.45;73.04
40918;BME280;26644;50.248;19.032;2024-01-06T10:01:36;97210.41;;;5.50;73.36
40918;BME280;26644;50.248;19.032;2024-01-06T10:04:40;97214.50;;;5.53;72.81
40918;BME280;26644;50.248;19.032;2024-01-06T10:07:48;97209.34;;;5.51;72.96
40918;BME280;26644;50.248;19.032;2024-01-06T10:10:52;97212.03;;;5.56;72.98
40918;BME280;26644;50.248;19.032;2024-01-06T10:13:57;97211.22;;;5.56;72.70
40918;BME280;26644;50.248;19.032;2024-01-06T10:17:05;97213.13;;;5.55;73.22
40918;BME280;26644;50.248;19.032;2024-01-06T10:20:12;97213.41;;;5.59;73.19
40918;BME280;26644;50.248;19.032;2024-01-06T10:23:22;97210.13;;;5.62;72.82
40918;BME280;26644;50.248;19.032;2024-01-06T10:26:28;97211.75;;;5.63;73.15
40918;BME280;26644;50.248;19.032;2024-01-06T10:29:33;97204.38;;;5.64;72.97
40918;BME280;26644;50.248;19.032;2024-01-06T10:32:39;97215.28;;;5.64;73.28
40918;BME280;26644;50.248;19.032;2024-01-06T10:35:43;97212.84;;;5.62;73.51
40918;BME280;26644;50.248;19.032;2024-01-06T10:38:52;97212.00;;;5.61;73.53
40918;BME280;26644;50.248;19.032;2024-01-06T10:41:57;97206.31;;;5.63;73.32
40918;BME280;26644;50.248;19.032;2024-01-06T10:45:07;97201.09;;;5.67;73.73
40918;BME280;26644;50.248;19.032;2024-01-06T10:48:12;97208.44;;;5.71;73.73
40918;BME280;26644;50.248;19.032;2024-01-06T10:51:19;97213.31;;;5.74;73.60
40918;BME280;26644;50.248;19.032;2024-01-06T10:54:31;97203.00;;;5.76;73.59
40918;BME280;26644;50.248;19.032;2024-01-06T10:57:43;97197.78;;;5.80;73.76
40918;BME280;26644;50.248;19.032;2024-01-06T11:00:48;97204.03;;;5.86;73.90
40918;BME280;26644;50.248;19.032;2024-01-06T11:03:55;97194.72;;;5.92;73.85
40918;BME280;26644;50.248;19.032;2024-01-06T11:07:00;97197.69;;;6.01;73.66
40918;BME280;26644;50.248;19.032;2024-01-06T11:10:15;97181.91;;;6.03;74.02
40918;BME280;26644;50.248;19.032;2024-01-06T11:13:22;97200.66;;;6.15;73.96
40918;BME280;26644;50.248;19.032;2024-01-06T11:16:35;97195.72;;;6.17;73.35
40918;BME280;26644;50.248;19.032;2024-01-06T11:19:44;97193.25;;;6.20;73.71
40918;BME280;26644;50.248;19.032;2024-01-06T11:22:53;97187.50;;;6.22;73.91
40918;BME280;26644;50.248;19.032;2024-01-06T11:26:00;97189.16;;;6.23;73.83
40918;BME280;26644;50.248;19.032;2024-01-06T11:29:07;97198.09;;;6.28;73.83
40918;BME280;26644;50.248;19.032;2024-01-06T11:32:19;97194.25;;;6.35;74.07
40918;BME280;26644;50.248;19.032;2024-01-06T11:35:27;97188.22;;;6.38;73.71
40918;BME280;26644;50.248;19.032;2024-01-06T11:38:33;97181.94;;;6.42;73.52
40918;BME280;26644;50.248;19.032;2024-01-06T11:41:48;97186.03;;;6.40;73.54
40918;BME280;26644;50.248;19.032;2024-01-06T11:45:01;97180.59;;;6.40;73.95
40918;BME280;26644;50.248;19.032;2024-01-06T11:48:10;97177.03;;;6.39;73.93
40918;BME280;26644;50.248;19.032;2024-01-06T11:51:15;97183.03;;;6.41;73.88
40918;BME280;26644;50.248;19.032;2024-01-06T11:54:21;97178.09;;;6.43;74.29
40918;BME280;26644;50.248;19.032;2024-01-06T11:57:29;97176.50;;;6.42;73.99
40918;BME280;26644;50.248;19.032;2024-01-06T12:00:35;97188.50;;;6.41;73.65
40918;BME280;26644;50.248;19.032;2024-01-06T12:03:40;97179.50;;;6.36;73.29
40918;BME280;26644;50.248;19.032;2024-01-06T12:06:45;97175.72;;;6.32;74.07
40918;BME280;26644;50.248;19.032;2024-01-06T12:09:50;97169.72;;;6.35;74.15
40918;BME280;26644;50.248;19.032;2024-01-06T12:13:07;97176.53;;;6.37;73.44
40918;BME280;26644;50.248;19.032;2024-01-06T12:16:12;97168.88;;;6.34;72.95
40918;BME280;26644;50.248;19.032;2024-01-06T12:19:17;97179.78;;;6.34;72.77
40918;BME280;26644;50.248;19.032;2024-01-06T12:22:21;97182.00;;;6.32;72.74
40918;BME280;26644;50.248;19.032;2024-01-06T12:25:27;97184.19;;;6.30;72.89
40918;BME280;26644;50.248;19.032;2024-01-06T12:28:38;97182.59;;;6.24;72.35
40918;BME280;26644;50.248;19.032;2024-01-06T12:31:43;97194.88;;;6.21;72.39
40918;BME280;26644;50.248;19.032;2024-01-06T12:34:48;97186.19;;;6.14;72.99
40918;BME280;26644;50.248;19.032;2024-01-06T12:37:53;97192.75;;;6.08;72.90
40918;BME280;26644;50.248;19.032;2024-01-06T12:40:58;97208.03;;;6.04;72.95
40918;BME280;26644;50.248;19.032;2024-01-06T12:44:07;97195.28;;;5.94;72.73
40918;BME280;26644;50.248;19.032;2024-01-06T12:47:12;97196.09;;;5.89;73.11
40918;BME280;26644;50.248;19.032;2024-01-06T12:50:17;97194.53;;;5.83;73.23
40918;BME280;26644;50.248;19.032;2024-01-06T12:53:21;97209.53;;;5.75;73.11
40918;BME280;26644;50.248;19.032;2024-01-06T12:56:26;97204.38;;;5.69;73.63
40918;BME280;26644;50.248;19.032;2024-01-06T12:59:33;97206.03;;;5.59;73.88
40918;BME280;26644;50.248;19.032;2024-01-06T13:02:38;97201.16;;;5.56;74.33
40918;BME280;26644;50.248;19.032;2024-01-06T13:05:42;97204.16;;;5.50;74.04
40918;BME280;26644;50.248;19.032;2024-01-06T13:08:48;97203.91;;;5.46;74.14
40918;BME280;26644;50.248;19.032;2024-01-06T13:11:52;97211.50;;;5.44;74.14
40918;BME280;26644;50.248;19.032;2024-01-06T13:15:00;97209.06;;;5.37;74.31
40918;BME280;26644;50.248;19.032;2024-01-06T13:18:05;97211.81;;;5.32;74.71
40918;BME280;26644;50.248;19.032;2024-01-06T13:21:10;97222.16;;;5.30;74.37
40918;BME280;26644;50.248;19.032;2024-01-06T13:24:14;97223.25;;;5.24;74.54
40918;BME280;26644;50.248;19.032;2024-01-06T13:27:19;97225.97;;;5.19;74.92
40918;BME280;26644;50.248;19.032;2024-01-06T13:30:26;97237.41;;;5.16;74.76
40918;BME280;26644;50.248;19.032;2024-01-06T13:33:31;97230.06;;;5.11;74.69
40918;BME280;26644;50.248;19.032;2024-01-06T13:36:35;97227.63;;;5.04;74.64
40918;BME280;26644;50.248;19.032;2024-01-06T13:39:41;97229.25;;;5.00;74.71
40918;BME280;26644;50.248;19.032;2024-01-06T13:42:46;97230.09;;;4.90;74.96
40918;BME280;26644;50.248;19.032;2024-01-06T13:45:55;97227.34;;;4.80;74.52
40918;BME280;26644;50.248;19.032;2024-01-06T13:48:59;97229.78;;;4.71;75.11
40918;BME280;26644;50.248;19.032;2024-01-06T13:52:04;97225.16;;;4.61;75.11
40918;BME280;26644;50.248;19.032;2024-01-06T13:55:09;97228.41;;;4.53;75.42
40918;BME280;26644;50.248;19.032;2024-01-06T13:58:14;97236.25;;;4.50;75.66
40918;BME280;26644;50.248;19.032;2024-01-06T14:01:23;97237.59;;;4.42;75.35
40918;BME280;26644;50.248;19.032;2024-01-06T14:04:28;97233.78;;;4.33;75.69
40918;BME280;26644;50.248;19.032;2024-01-06T14:07:32;97245.75;;;4.32;75.59
40918;BME280;26644;50.248;19.032;2024-01-06T14:10:40;97247.91;;;4.30;75.60
40918;BME280;26644;50.248;19.032;2024-01-06T14:13:45;97247.88;;;4.19;75.63
40918;BME280;26644;50.248;19.032;2024-01-06T14:16:54;97261.16;;;4.16;75.87
40918;BME280;26644;50.248;19.032;2024-01-06T14:19:58;97256.00;;;4.14;76.15
40918;BME280;26644;50.248;19.032;2024-01-06T14:23:04;97251.13;;;4.11;76.16
40918;BME280;26644;50.248;19.032;2024-01-06T14:26:08;97253.25;;;4.09;76.17
40918;BME280;26644;50.248;19.032;2024-01-06T14:29:13;97265.75;;;4.05;76.19
40918;BME280;26644;50.248;19.032;2024-01-06T14:32:20;97259.78;;;4.03;76.45
40918;BME280;26644;50.248;19.032;2024-01-06T14:35:25;97266.28;;;4.02;76.53
40918;BME280;26644;50.248;19.032;2024-01-06T14:38:30;97261.94;;;4.01;76.56
40918;BME280;26644;50.248;19.032;2024-01-06T14:41:35;97278.22;;;4.01;76.50
40918;BME280;26644;50.248;19.032;2024-01-06T14:44:39;97269.78;;;3.97;76.50
40918;BME280;26644;50.248;19.032;2024-01-06T14:47:46;97271.69;;;3.97;76.66
40918;BME280;26644;50.248;19.032;2024-01-06T14:50:51;97267.91;;;3.98;76.63
40918;BME280;26644;50.248;19.032;2024-01-06T14:53:56;97271.97;;;3.95;76.82
40918;BME280;26644;50.248;19.032;2024-01-06T14:57:01;97268.16;;;3.91;76.72
40918;BME280;26644;50.248;19.032;2024-01-06T15:00:07;97277.63;;;3.83;76.53
40918;BME280;26644;50.248;19.032;2024-01-06T15:03:15;97287.91;;;3.81;76.60
40918;BME280;26644;50.248;19.032;2024-01-06T15:06:20;97292.81;;;3.79;77.03
40918;BME280;26644;50.248;19.032;2024-01-06T15:09:24;97291.13;;;3.73;76.35
40918;BME280;26644;50.248;19.032;2024-01-06T15:12:30;97295.16;;;3.65;76.88
40918;BME280;26644;50.248;19.032;2024-01-06T15:15:35;97293.50;;;3.59;76.74
40918;BME280;26644;50.248;19.032;2024-01-06T15:18:43;97291.06;;;3.57;77.24
40918;BME280;26644;50.248;19.032;2024-01-06T15:21:48;97302.13;;;3.51;76.54
40918;BME280;26644;50.248;19.032;2024-01-06T15:24:53;97302.34;;;3.44;76.77
40918;BME280;26644;50.248;19.032;2024-01-06T15:27:57;97314.00;;;3.39;76.99
40918;BME280;26644;50.248;19.032;2024-01-06T15:31:02;97307.19;;;3.37;76.95
40918;BME280;26644;50.248;19.032;2024-01-06T15:34:09;97306.84;;;3.28;77.12
40918;BME280;26644;50.248;19.032;2024-01-06T15:37:14;97314.69;;;3.24;77.11
40918;BME280;26644;50.248;19.032;2024-01-06T15:40:18;97318.75;;;3.22;77.39
40918;BME280;26644;50.248;19.032;2024-01-06T15:43:23;97327.38;;;3.19;77.44
40918;BME280;26644;50.248;19.032;2024-01-06T15:46:28;97320.06;;;3.19;78.12
40918;BME280;26644;50.248;19.032;2024-01-06T15:49:35;97323.59;;;3.20;77.68
40918;BME280;26644;50.248;19.032;2024-01-06T15:52:40;97316.84;;;3.22;77.30
40918;BME280;26644;50.248;19.032;2024-01-06T15:55:47;97329.31;;;3.23;77.86
40918;BME280;26644;50.248;19.032;2024-01-06T15:58:52;97327.94;;;3.21;77.82
40918;BME280;26644;50.248;19.032;2024-01-06T16:01:58;97329.59;;;3.22;77.82
40918;BME280;26644;50.248;19.032;2024-01-06T16:05:06;97327.41;;;3.24;77.89
40918;BME280;26644;50.248;19.032;2024-01-06T16:08:12;97336.13;;;3.26;78.07
40918;BME280;26644;50.248;19.032;2024-01-06T16:11:16;97328.53;;;3.28;78.21
40918;BME280;26644;50.248;19.032;2024-01-06T16:14:21;97333.50;;;3.36;77.67
40918;BME280;26644;50.248;19.032;2024-01-06T16:17:26;97329.91;;;3.31;77.35
40918;BME280;26644;50.248;19.032;2024-01-06T16:20:34;97320.97;;;3.30;77.76
40918;BME280;26644;50.248;19.032;2024-01-06T16:23:39;97325.59;;;3.30;77.56